Time;durP1;ratioP1;P1;durP2;ratioP2;P2;SDS_P1;SDS_P2;PMS_P1;PMS_P2;Temp;Humidity;BMP_temperature;BMP_pressure;BME280_temperature;BME280_humidity;BME280_pressure;Samples;Min_cycle;Max_cycle;Signal;HPM_P1;HPM_P2
2021/01/30 00:01:19;;;;;;;7.53;3.97;;;;;7.90;99672.00;;;;10477630;28;20201;-82
2021/01/30 00:06:20;;;;;;;16.97;4.70;;;;;7.90;99669.00;;;;10482609;28;20220;-82
2021/01/30 00:11:22;;;;;;;18.83;4.43;;;;;7.90;99668.00;;;;10457046;28;20195;-82
2021/01/30 00:16:23;;;;;;;15.47;5.13;;;;;7.90;99665.00;;;;10489520;28;20205;-82
2021/01/30 00:21:24;;;;;;;21.83;4.50;;;;;7.80;99672.00;;;;10494005;28;20220;-82
2021/01/30 00:26:26;;;;;;;17.27;4.97;;;;;7.80;99665.00;;;;10448482;28;20208;-82
2021/01/30 00:31:27;;;;;;;13.67;4.73;;;;;7.80;99663.00;;;;10472477;28;20281;-82
2021/01/30 00:36:29;;;;;;;18.77;4.10;;;;;7.90;99656.00;;;;10483665;28;20238;-82
2021/01/30 00:41:30;;;;;;;15.27;4.27;;;;;8.00;99656.00;;;;10510907;28;20225;-82
2021/01/30 00:46:33;;;;;;;19.50;4.27;;;;;8.00;99647.00;;;;10459928;28;20648;-82
2021/01/30 00:51:35;;;;;;;13.77;3.97;;;;;8.00;99644.00;;;;10451991;28;20263;-83
2021/01/30 00:56:38;;;;;;;15.40;3.70;;;;;8.00;99637.00;;;;10456715;28;20199;-83
2021/01/30 01:01:40;;;;;;;20.23;4.40;;;;;8.10;99638.00;;;;10425982;28;21140;-82
2021/01/30 01:06:49;;;;;;;17.17;4.70;;;;;8.10;99634.00;;;;10424091;28;20763;-82
2021/01/30 01:11:51;;;;;;;17.47;4.90;;;;;8.10;99642.00;;;;10459705;28;20198;-82
2021/01/30 01:16:53;;;;;;;21.53;5.33;;;;;8.10;99643.00;;;;10475652;28;20300;-82
2021/01/30 01:21:55;;;;;;;24.83;5.70;;;;;8.10;99638.00;;;;10443294;28;20204;-81
2021/01/30 01:26:56;;;;;;;24.80;5.70;;;;;8.10;99645.00;;;;10434167;28;20197;-81
2021/01/30 01:31:58;;;;;;;12.50;4.90;;;;;8.00;99641.00;;;;10457605;28;20273;-81
2021/01/30 01:37:04;;;;;;;22.03;6.00;;;;;8.00;99658.00;;;;10452391;28;20206;-82
2021/01/30 01:42:11;;;;;;;19.83;5.40;;;;;8.10;99638.00;;;;10429065;28;20202;-82
2021/01/30 01:47:19;;;;;;;23.73;5.93;;;;;8.10;99644.00;;;;10431533;28;20206;-81
2021/01/30 01:52:32;;;;;;;19.30;7.03;;;;;8.10;99637.00;;;;10435440;28;20320;-82
2021/01/30 01:57:34;;;;;;;24.17;6.47;;;;;8.10;99640.00;;;;10426637;28;20191;-82
2021/01/30 02:02:36;;;;;;;20.23;6.50;;;;;8.10;99641.00;;;;10415441;28;20280;-82
2021/01/30 02:07:41;;;;;;;27.60;6.53;;;;;8.10;99629.00;;;;10440947;28;20202;-82
2021/01/30 02:12:44;;;;;;;25.90;6.57;;;;;8.10;99636.00;;;;10445842;28;20210;-81
2021/01/30 02:18:18;;;;;;;25.93;6.73;;;;;8.10;99631.00;;;;10452458;28;20214;-79
2021/01/30 02:23:56;;;;;;;23.37;8.10;;;;;8.00;99630.00;;;;10462111;28;20284;-81
2021/01/30 02:29:25;;;;;;;30.10;7.70;;;;;8.00;99631.00;;;;10428673;28;20202;-77
2021/01/30 02:34:50;;;;;;;19.33;7.73;;;;;7.90;99627.00;;;;10427946;28;20256;-79
2021/01/30 02:40:02;;;;;;;28.03;7.50;;;;;7.90;99628.00;;;;10446153;28;20202;-80
2021/01/30 02:45:06;;;;;;;21.37;7.70;;;;;7.80;99624.00;;;;10440258;28;20226;-79
2021/01/30 02:50:14;;;;;;;23.83;7.50;;;;;7.80;99631.00;;;;10412560;28;20218;-78
2021/01/30 02:55:16;;;;;;;23.40;8.43;;;;;7.80;99630.00;;;;10429230;28;20272;-78
2021/01/30 03:00:22;;;;;;;9.63;7.53;;;;;7.50;99626.00;;;;10438246;28;20206;-79
2021/01/30 03:05:23;;;;;;;9.87;7.90;;;;;6.90;99624.00;;;;10421821;28;20203;-79
2021/01/30 03:10:37;;;;;;;15.13;11.70;;;;;6.70;99631.00;;;;10405908;28;20724;-80
2021/01/30 03:15:46;;;;;;;23.80;13.43;;;;;6.40;99626.00;;;;10376906;28;20225;-80
2021/01/30 03:20:48;;;;;;;21.27;14.90;;;;;6.30;99627.00;;;;10395564;28;20198;-79
2021/01/30 03:25:52;;;;;;;25.00;15.60;;;;;6.20;99641.00;;;;10416105;28;20769;-79
2021/01/30 03:30:54;;;;;;;19.37;12.63;;;;;6.10;99639.00;;;;10424752;28;20194;-78
2021/01/30 03:35:55;;;;;;;18.47;13.50;;;;;6.00;99628.00;;;;10414286;28;20215;-81
2021/01/30 03:40:57;;;;;;;19.70;14.13;;;;;5.80;99621.00;;;;10407925;28;20194;-81
2021/01/30 03:45:58;;;;;;;19.10;14.63;;;;;5.80;99617.00;;;;10406262;28;20210;-81
2021/01/30 03:51:02;;;;;;;17.40;14.50;;;;;5.60;99627.00;;;;10406607;28;20200;-81
2021/01/30 03:56:04;;;;;;;20.30;15.30;;;;;5.30;99630.00;;;;10429573;28;20210;-81
2021/01/30 04:01:05;;;;;;;26.50;16.13;;;;;5.00;99630.00;;;;10413227;28;20232;-82
2021/01/30 04:06:14;;;;;;;24.13;16.77;;;;;4.80;99637.00;;;;10430387;28;20229;-81
2021/01/30 04:11:15;;;;;;;28.07;16.73;;;;;4.60;99631.00;;;;10418732;28;20202;-81
2021/01/30 04:16:17;;;;;;;29.33;18.23;;;;;4.40;99639.00;;;;10402819;28;20205;-81
2021/01/30 04:21:19;;;;;;;32.30;17.40;;;;;4.30;99637.00;;;;10452929;28;20202;-81
2021/01/30 04:26:20;;;;;;;33.17;19.00;;;;;4.30;99638.00;;;;10421521;28;20241;-81
2021/01/30 04:31:22;;;;;;;31.13;18.80;;;;;4.20;99641.00;;;;10420191;28;20233;-81
2021/01/30 04:36:24;;;;;;;33.03;20.07;;;;;4.10;99639.00;;;;10421695;28;20210;-81
2021/01/30 04:41:38;;;;;;;32.33;18.77;;;;;4.10;99641.00;;;;10407879;28;20198;-80
2021/01/30 04:46:59;;;;;;;19.67;12.23;;;;;3.90;99647.00;;;;10402505;28;20210;-80
2021/01/30 04:52:10;;;;;;;19.40;11.90;;;;;3.70;99640.00;;;;10443200;28;20190;-80
2021/01/30 04:57:36;;;;;;;18.60;11.87;;;;;3.50;99629.00;;;;10428899;28;20234;-81
2021/01/30 05:03:07;;;;;;;26.97;13.83;;;;;3.40;99621.00;;;;10445342;28;20236;-81
2021/01/30 05:08:26;;;;;;;27.87;14.77;;;;;3.20;99611.00;;;;10420732;28;20256;-80
2021/01/30 05:13:37;;;;;;;22.37;13.60;;;;;3.20;99608.00;;;;10434116;28;20213;-81
2021/01/30 05:18:45;;;;;;;21.30;14.93;;;;;3.00;99594.00;;;;10411677;28;20657;-81
2021/01/30 05:23:50;;;;;;;22.67;14.70;;;;;2.90;99586.00;;;;10409045;28;20597;-81
2021/01/30 05:29:17;;;;;;;26.27;14.63;;;;;2.90;99579.00;;;;10412069;28;20205;-81
2021/01/30 05:34:25;;;;;;;23.23;14.73;;;;;2.80;99585.00;;;;10385866;28;20221;-81
2021/01/30 05:39:46;;;;;;;26.53;15.73;;;;;2.80;99581.00;;;;10399686;28;20616;-80
2021/01/30 05:44:56;;;;;;;25.90;17.17;;;;;2.70;99575.00;;;;10428062;28;20248;-81
2021/01/30 05:50:19;;;;;;;24.03;14.83;;;;;2.70;99577.00;;;;10399625;28;20202;-81
2021/01/30 05:55:31;;;;;;;23.63;16.00;;;;;2.60;99574.00;;;;10425361;28;20301;-81
2021/01/30 06:00:34;;;;;;;27.83;16.73;;;;;2.60;99572.00;;;;10391556;28;20199;-81
2021/01/30 06:05:46;;;;;;;29.77;18.20;;;;;2.60;99567.00;;;;10389042;28;20218;-81
2021/01/30 06:10:53;;;;;;;28.00;16.73;;;;;2.50;99566.00;;;;10395188;28;20203;-81
2021/01/30 06:15:58;;;;;;;24.57;16.47;;;;;2.50;99574.00;;;;10429167;28;20673;-80
2021/01/30 06:21:02;;;;;;;31.03;18.63;;;;;2.40;99568.00;;;;10368388;28;20199;-79
2021/01/30 06:26:10;;;;;;;28.13;18.07;;;;;2.40;99567.00;;;;10392804;28;20210;-81
2021/01/30 06:31:39;;;;;;;27.30;17.77;;;;;2.40;99560.00;;;;10449414;28;20194;-81
2021/01/30 06:36:47;;;;;;;31.20;20.13;;;;;2.30;99564.00;;;;10418205;28;20207;-81
2021/01/30 06:41:54;;;;;;;40.40;23.07;;;;;2.30;99561.00;;;;10431248;28;20273;-81
2021/01/30 06:47:10;;;;;;;33.80;18.80;;;;;2.20;99555.00;;;;10439430;28;20222;-81
2021/01/30 06:52:22;;;;;;;30.17;16.87;;;;;2.20;99565.00;;;;10390136;28;20199;-81
2021/01/30 06:57:26;;;;;;;32.67;19.57;;;;;2.10;99571.00;;;;10415289;28;20229;-81
2021/01/30 07:02:41;;;;;;;31.90;18.80;;;;;2.10;99562.00;;;;10430548;28;20305;-80
2021/01/30 07:08:20;;;;;;;35.03;22.13;;;;;2.00;99568.00;;;;10446521;28;20624;-80
2021/01/30 07:13:41;;;;;;;36.13;20.17;;;;;2.00;99571.00;;;;10480369;28;20198;-79
2021/01/30 07:19:20;;;;;;;33.87;19.27;;;;;2.00;99566.00;;;;10405734;28;20202;-79
2021/01/30 07:24:31;;;;;;;34.00;20.43;;;;;1.90;99570.00;;;;10396335;28;20198;-80
2021/01/30 07:29:43;;;;;;;28.53;16.90;;;;;1.90;99557.00;;;;10430185;28;20248;-80
2021/01/30 07:35:11;;;;;;;32.03;16.83;;;;;1.90;99550.00;;;;10413270;28;20210;-79
2021/01/30 07:40:52;;;;;;;30.93;17.30;;;;;1.90;99564.00;;;;10409752;28;20190;-80
2021/01/30 07:46:19;;;;;;;24.93;15.27;;;;;1.90;99557.00;;;;10416967;28;20209;-81
2021/01/30 07:51:54;;;;;;;31.53;16.97;;;;;1.90;99554.00;;;;10420915;28;20202;-81
2021/01/30 07:56:55;;;;;;;28.30;16.73;;;;;2.00;99563.00;;;;10469944;28;20205;-80
2021/01/30 08:02:21;;;;;;;24.80;15.63;;;;;1.90;99550.00;;;;10381965;28;20210;-80
2021/01/30 08:07:39;;;;;;;30.97;17.33;;;;;2.00;99535.00;;;;10440838;28;20206;-80
2021/01/30 08:12:56;;;;;;;33.27;17.27;;;;;2.00;99531.00;;;;10444826;28;20247;-80
2021/01/30 08:18:36;;;;;;;27.07;14.70;;;;;2.00;99519.00;;;;10414862;28;20657;-80
2021/01/30 08:24:02;;;;;;;19.43;11.10;;;;;2.00;99512.00;;;;10425777;28;20190;-79
2021/01/30 08:29:14;;;;;;;26.50;14.87;;;;;2.00;99519.00;;;;10428183;28;20604;-79
2021/01/30 08:34:18;;;;;;;28.10;14.33;;;;;2.00;99510.00;;;;10395271;28;20279;-80
2021/01/30 08:39:25;;;;;;;24.67;14.70;;;;;2.00;99511.00;;;;10419925;28;20281;-80
2021/01/30 08:44:40;;;;;;;26.37;14.77;;;;;2.00;99507.00;;;;10432583;28;20681;-80
2021/01/30 08:49:55;;;;;;;28.43;17.00;;;;;2.00;99515.00;;;;10403470;28;20248;-81
2021/01/30 08:54:59;;;;;;;27.57;16.70;;;;;1.90;99510.00;;;;10434788;28;20210;-81
2021/01/30 09:00:37;;;;;;;28.07;16.80;;;;;1.90;99501.00;;;;10423098;28;20666;-80
2021/01/30 09:05:41;;;;;;;31.43;18.40;;;;;1.90;99505.00;;;;10432098;28;20217;-79
2021/01/30 09:10:42;;;;;;;30.13;17.73;;;;;1.90;99507.00;;;;10417582;28;20191;-79
2021/01/30 09:15:44;;;;;;;27.03;15.37;;;;;1.80;99506.00;;;;10408629;28;20209;-79
2021/01/30 09:21:07;;;;;;;27.87;18.30;;;;;1.80;99502.00;;;;10438053;28;20198;-79
2021/01/30 09:26:30;;;;;;;28.37;16.87;;;;;1.80;99500.00;;;;10383400;28;20197;-79
2021/01/30 09:31:32;;;;;;;25.57;14.57;;;;;1.80;99485.00;;;;10391036;28;20656;-80
2021/01/30 09:36:42;;;;;;;36.17;22.43;;;;;1.80;99480.00;;;;10426813;28;20292;-80
2021/01/30 09:41:43;;;;;;;36.63;20.40;;;;;1.90;99469.00;;;;10427997;28;20195;-80
2021/01/30 09:46:51;;;;;;;40.87;22.43;;;;;1.90;99471.00;;;;10443817;28;20302;-80
2021/01/30 09:51:55;;;;;;;38.40;22.77;;;;;2.00;99470.00;;;;10422082;28;20206;-80
2021/01/30 09:57:13;;;;;;;41.37;23.97;;;;;2.00;99475.00;;;;10418780;28;20305;-79
2021/01/30 10:02:23;;;;;;;38.73;22.63;;;;;2.00;99466.00;;;;10442634;28;20202;-80
2021/01/30 10:07:28;;;;;;;40.70;25.23;;;;;2.00;99457.00;;;;10424393;28;20194;-80
2021/01/30 10:12:33;;;;;;;42.87;22.47;;;;;2.00;99456.00;;;;10437002;28;20198;-80
2021/01/30 10:17:42;;;;;;;38.60;21.20;;;;;2.00;99458.00;;;;10438218;28;20230;-80
2021/01/30 10:22:56;;;;;;;53.13;28.60;;;;;1.90;99459.00;;;;10402347;28;20562;-80
2021/01/30 10:28:10;;;;;;;47.87;28.63;;;;;1.80;99467.00;;;;10418552;28;20530;-80
2021/01/30 10:33:13;;;;;;;53.90;30.90;;;;;1.80;99453.00;;;;10397816;28;20574;-80
2021/01/30 10:38:19;;;;;;;55.00;32.80;;;;;1.80;99460.00;;;;10427802;28;20206;-80
2021/01/30 10:43:32;;;;;;;57.90;30.17;;;;;1.80;99449.00;;;;10430772;28;20297;-80
2021/01/30 10:48:37;;;;;;;52.07;28.50;;;;;1.80;99445.00;;;;10422648;28;20289;-79
2021/01/30 10:53:40;;;;;;;51.73;29.47;;;;;1.70;99446.00;;;;10432379;28;20207;-79
2021/01/30 10:58:44;;;;;;;54.03;29.87;;;;;1.70;99439.00;;;;10400188;28;20604;-79
2021/01/30 11:04:23;;;;;;;56.53;32.27;;;;;1.70;99429.00;;;;10395642;28;20666;-79
2021/01/30 11:09:33;;;;;;;61.20;35.60;;;;;1.80;99430.00;;;;10398855;28;20198;-79
2021/01/30 11:14:36;;;;;;;57.90;35.57;;;;;1.80;99429.00;;;;10437375;28;20207;-80
2021/01/30 11:19:37;;;;;;;61.10;35.77;;;;;1.80;99424.00;;;;10427462;28;20195;-80
2021/01/30 11:24:47;;;;;;;59.20;33.43;;;;;1.80;99423.00;;;;10416559;28;20186;-81
2021/01/30 11:29:48;;;;;;;59.93;33.60;;;;;1.80;99423.00;;;;10417809;28;20195;-81
2021/01/30 11:34:55;;;;;;;54.20;36.07;;;;;1.80;99420.00;;;;10402145;28;20207;-80
2021/01/30 11:40:05;;;;;;;59.60;31.23;;;;;1.90;99398.00;;;;10426215;28;20198;-79
2021/01/30 11:45:07;;;;;;;55.33;32.87;;;;;1.90;99402.00;;;;10428309;28;20219;-78
2021/01/30 11:50:10;;;;;;;52.67;32.80;;;;;2.00;99388.00;;;;10402597;28;20234;-80
2021/01/30 11:55:14;;;;;;;51.83;30.13;;;;;2.00;99386.00;;;;10390366;28;20257;-79
2021/01/30 12:00:16;;;;;;;49.13;30.03;;;;;2.10;99387.00;;;;10398415;28;20198;-81
2021/01/30 12:05:18;;;;;;;54.10;29.40;;;;;2.10;99370.00;;;;10411594;28;20292;-79
2021/01/30 12:10:20;;;;;;;49.00;28.03;;;;;2.10;99378.00;;;;10426428;28;20265;-80
2021/01/30 12:15:22;;;;;;;52.97;29.20;;;;;2.20;99366.00;;;;10424889;28;20286;-79
2021/01/30 12:20:27;;;;;;;48.57;29.00;;;;;2.30;99350.00;;;;10406078;28;20272;-80
2021/01/30 12:25:31;;;;;;;49.20;29.43;;;;;2.40;99345.00;;;;10407615;28;20204;-81
2021/01/30 12:30:36;;;;;;;40.90;26.50;;;;;2.40;99348.00;;;;10426495;28;20194;-81
2021/01/30 12:35:38;;;;;;;48.70;28.83;;;;;2.50;99344.00;;;;10409760;28;20637;-79
2021/01/30 12:40:42;;;;;;;46.97;29.17;;;;;2.60;99328.00;;;;10391624;28;20288;-81
2021/01/30 12:45:46;;;;;;;45.50;28.33;;;;;2.50;99340.00;;;;10408787;28;20313;-81
2021/01/30 12:50:47;;;;;;;46.47;28.83;;;;;2.60;99322.00;;;;10408232;28;20885;-81
2021/01/30 12:55:49;;;;;;;45.17;29.67;;;;;2.70;99312.00;;;;10412211;28;20206;-81
2021/01/30 13:00:51;;;;;;;48.80;32.17;;;;;2.70;99289.00;;;;10416530;28;20190;-82
2021/01/30 13:05:54;;;;;;;41.17;27.73;;;;;2.70;99295.00;;;;10426277;28;20190;-80
2021/01/30 13:10:55;;;;;;;43.53;26.83;;;;;2.70;99296.00;;;;10442259;28;20550;-80
2021/01/30 13:15:57;;;;;;;39.53;27.90;;;;;2.60;99299.00;;;;10424163;28;20226;-81
2021/01/30 13:21:12;;;;;;;37.77;26.27;;;;;2.50;99291.00;;;;10386023;28;20247;-80
2021/01/30 13:26:18;;;;;;;38.00;24.63;;;;;2.50;99286.00;;;;10409911;28;20917;-81
2021/01/30 13:31:20;;;;;;;45.70;28.87;;;;;2.50;99288.00;;;;10427628;28;20194;-81
2021/01/30 13:36:24;;;;;;;39.87;24.03;;;;;2.50;99283.00;;;;10412904;28;20210;-80
2021/01/30 13:41:27;;;;;;;43.27;26.33;;;;;2.60;99273.00;;;;10413317;28;20269;-82
2021/01/30 13:46:29;;;;;;;39.33;25.40;;;;;2.50;99266.00;;;;10374067;28;20258;-80
2021/01/30 13:51:32;;;;;;;34.53;23.47;;;;;2.40;99267.00;;;;10409842;28;20198;-81
2021/01/30 13:56:33;;;;;;;38.80;27.03;;;;;2.40;99282.00;;;;10428640;28;20229;-80
2021/01/30 14:01:39;;;;;;;37.80;25.70;;;;;2.40;99272.00;;;;10414433;28;20214;-80
2021/01/30 14:06:41;;;;;;;37.30;26.00;;;;;2.40;99284.00;;;;10430977;28;20634;-80
2021/01/30 14:11:43;;;;;;;37.00;25.20;;;;;2.40;99285.00;;;;10428626;28;20216;-81
2021/01/30 14:16:45;;;;;;;41.27;23.93;;;;;2.40;99283.00;;;;10411604;28;20681;-81
2021/01/30 14:21:47;;;;;;;37.47;23.23;;;;;2.40;99292.00;;;;10434376;28;20198;-81
2021/01/30 14:26:49;;;;;;;32.07;22.10;;;;;2.40;99283.00;;;;10434926;28;20841;-81
2021/01/30 14:31:59;;;;;;;32.87;22.80;;;;;2.40;99288.00;;;;10435075;28;20190;-80
2021/01/30 14:37:03;;;;;;;34.87;24.90;;;;;2.30;99280.00;;;;10402247;28;20245;-81
2021/01/30 14:42:04;;;;;;;31.63;21.60;;;;;2.30;99285.00;;;;10403074;28;20190;-82
2021/01/30 14:47:06;;;;;;;34.03;24.57;;;;;2.30;99298.00;;;;10417313;28;20291;-80
2021/01/30 14:52:07;;;;;;;34.10;23.10;;;;;2.20;99294.00;;;;10416421;28;20308;-81
2021/01/30 14:57:09;;;;;;;35.53;25.73;;;;;2.20;99289.00;;;;10433500;28;20220;-81
2021/01/30 15:02:12;;;;;;;35.60;26.40;;;;;2.20;99274.00;;;;10433809;28;20719;-81
2021/01/30 15:07:14;;;;;;;36.90;25.00;;;;;2.20;99272.00;;;;10416935;28;20206;-80
2021/01/30 15:12:16;;;;;;;35.77;25.47;;;;;2.20;99282.00;;;;10432551;28;20252;-81
2021/01/30 15:17:19;;;;;;;38.13;26.27;;;;;2.20;99294.00;;;;10418193;28;20336;-81
2021/01/30 15:22:21;;;;;;;36.20;26.93;;;;;2.10;99283.00;;;;10433364;28;20224;-81
2021/01/30 15:27:24;;;;;;;35.30;25.37;;;;;2.10;99283.00;;;;10424772;28;20194;-81
2021/01/30 15:32:30;;;;;;;37.10;26.70;;;;;2.00;99278.00;;;;10359310;28;20205;-80
2021/01/30 15:37:31;;;;;;;35.63;23.17;;;;;2.00;99277.00;;;;10374997;28;20218;-80
2021/01/30 15:42:33;;;;;;;35.80;23.50;;;;;1.90;99271.00;;;;10373501;28;20187;-80
2021/01/30 15:47:34;;;;;;;36.37;24.10;;;;;1.90;99276.00;;;;10442773;28;20206;-80
2021/01/30 15:52:36;;;;;;;40.37;25.37;;;;;1.90;99292.00;;;;10413565;28;20241;-80
2021/01/30 15:57:37;;;;;;;40.67;28.50;;;;;1.80;99296.00;;;;10412579;28;20751;-80
2021/01/30 16:02:39;;;;;;;39.77;27.37;;;;;1.70;99310.00;;;;10428787;28;20256;-80
2021/01/30 16:07:40;;;;;;;39.63;26.73;;;;;1.60;99307.00;;;;10412686;28;20198;-79
2021/01/30 16:12:43;;;;;;;39.43;26.23;;;;;1.50;99314.00;;;;10428854;28;20208;-79
2021/01/30 16:17:44;;;;;;;44.23;24.70;;;;;1.50;99333.00;;;;10444925;28;20300;-79
2021/01/30 16:22:46;;;;;;;39.20;26.63;;;;;1.50;99340.00;;;;10410886;28;20198;-80
2021/01/30 16:27:49;;;;;;;38.40;28.20;;;;;1.50;99350.00;;;;10427656;28;20186;-80
2021/01/30 16:32:51;;;;;;;40.43;26.67;;;;;1.50;99367.00;;;;10410859;28;20753;-80
2021/01/30 16:37:53;;;;;;;35.97;26.03;;;;;1.50;99373.00;;;;10402721;28;20642;-80
2021/01/30 16:42:54;;;;;;;34.10;23.47;;;;;1.50;99378.00;;;;10385120;28;20210;-79
2021/01/30 16:47:56;;;;;;;36.17;24.27;;;;;1.40;99378.00;;;;10402843;28;20238;-80
2021/01/30 16:52:58;;;;;;;34.77;23.67;;;;;1.40;99392.00;;;;10404193;28;20289;-80
2021/01/30 16:57:59;;;;;;;34.30;22.67;;;;;1.30;99397.00;;;;10427476;28;20213;-80
2021/01/30 17:03:04;;;;;;;32.80;23.93;;;;;1.30;99399.00;;;;10413691;28;20191;-80
2021/01/30 17:08:05;;;;;;;31.37;22.43;;;;;1.20;99415.00;;;;10396659;28;20244;-79
2021/01/30 17:13:15;;;;;;;29.47;20.37;;;;;1.10;99415.00;;;;10427360;28;20194;-80
2021/01/30 17:18:16;;;;;;;35.80;22.83;;;;;1.10;99428.00;;;;10356284;28;20212;-80
2021/01/30 17:23:19;;;;;;;35.10;22.53;;;;;1.10;99426.00;;;;10407127;28;20203;-81
2021/01/30 17:28:21;;;;;;;33.90;24.20;;;;;1.10;99425.00;;;;10411865;28;20557;-81
2021/01/30 17:33:23;;;;;;;38.80;25.03;;;;;1.10;99435.00;;;;10427022;28;20217;-81
2021/01/30 17:38:29;;;;;;;32.13;22.67;;;;;1.00;99426.00;;;;10411319;28;20218;-81
2021/01/30 17:43:31;;;;;;;33.47;21.73;;;;;1.00;99437.00;;;;10411372;28;20214;-81
2021/01/30 17:48:34;;;;;;;43.47;27.17;;;;;1.00;99444.00;;;;10390876;28;20191;-81
2021/01/30 17:53:36;;;;;;;30.97;21.33;;;;;1.10;99446.00;;;;10413975;28;20202;-80
2021/01/30 17:58:37;;;;;;;31.60;21.53;;;;;1.10;99449.00;;;;10425828;28;20207;-80
2021/01/30 18:03:38;;;;;;;25.73;18.30;;;;;1.10;99467.00;;;;10423794;28;20240;-81
2021/01/30 18:08:40;;;;;;;30.30;18.70;;;;;1.20;99465.00;;;;10417221;28;20606;-80
2021/01/30 18:13:43;;;;;;;26.47;19.70;;;;;1.20;99470.00;;;;10417414;28;20206;-80
2021/01/30 18:18:44;;;;;;;25.60;18.57;;;;;1.20;99471.00;;;;10417630;28;20197;-81
2021/01/30 18:23:46;;;;;;;26.60;19.37;;;;;1.20;99474.00;;;;10434333;28;20217;-81
2021/01/30 18:28:47;;;;;;;26.80;18.17;;;;;1.20;99475.00;;;;10434722;28;20646;-80
2021/01/30 18:33:48;;;;;;;21.17;17.43;;;;;1.20;99476.00;;;;10401469;28;20272;-80
2021/01/30 18:38:53;;;;;;;21.90;15.27;;;;;1.30;99475.00;;;;10433664;28;20284;-80
2021/01/30 18:43:55;;;;;;;25.23;16.63;;;;;1.30;99464.00;;;;10433098;28;20214;-81
2021/01/30 18:48:56;;;;;;;23.50;17.47;;;;;1.40;99469.00;;;;10400736;28;20205;-80
2021/01/30 18:53:58;;;;;;;18.37;12.30;;;;;1.40;99468.00;;;;10400549;28;20206;-81
2021/01/30 18:58:59;;;;;;;15.97;13.17;;;;;1.40;99478.00;;;;10417300;28;20232;-80
2021/01/30 19:04:00;;;;;;;13.97;11.70;;;;;1.50;99477.00;;;;10432511;28;20190;-80
2021/01/30 19:09:03;;;;;;;14.03;11.20;;;;;1.50;99474.00;;;;10432516;28;20194;-81
2021/01/30 19:14:04;;;;;;;13.73;11.23;;;;;1.50;99474.00;;;;10433445;28;20256;-80
2021/01/30 19:19:06;;;;;;;13.47;10.00;;;;;1.50;99468.00;;;;10414259;28;20209;-80
2021/01/30 19:24:10;;;;;;;11.03;8.97;;;;;1.50;99469.00;;;;10420865;28;20218;-80
2021/01/30 19:29:12;;;;;;;10.30;8.27;;;;;1.50;99476.00;;;;10404230;28;20202;-78
2021/01/30 19:34:13;;;;;;;10.47;8.90;;;;;1.50;99477.00;;;;10418858;28;20225;-79
2021/01/30 19:39:14;;;;;;;9.63;8.63;;;;;1.40;99473.00;;;;10426021;28;20207;-79
2021/01/30 19:44:16;;;;;;;10.97;8.63;;;;;1.40;99478.00;;;;10419105;28;20688;-81
2021/01/30 19:49:17;;;;;;;7.90;6.70;;;;;1.40;99481.00;;;;10423634;28;20669;-81
2021/01/30 19:54:19;;;;;;;9.23;7.17;;;;;1.30;99480.00;;;;10396650;28;20210;-81
2021/01/30 19:59:21;;;;;;;11.23;8.60;;;;;1.20;99483.00;;;;10400517;28;20221;-81
2021/01/30 20:04:24;;;;;;;9.77;8.20;;;;;1.20;99491.00;;;;10442290;28;20198;-80
2021/01/30 20:09:26;;;;;;;14.53;11.63;;;;;1.20;99497.00;;;;10420481;28;20202;-80
2021/01/30 20:14:28;;;;;;;11.77;9.10;;;;;1.10;99498.00;;;;10404900;28;20260;-80
2021/01/30 20:19:29;;;;;;;10.70;8.87;;;;;1.20;99494.00;;;;10409449;28;20277;-80
2021/01/30 20:24:30;;;;;;;12.13;9.73;;;;;1.20;99500.00;;;;10431818;28;20247;-80
2021/01/30 20:29:32;;;;;;;12.07;9.40;;;;;1.20;99488.00;;;;10383921;28;20215;-80
2021/01/30 20:34:33;;;;;;;11.23;8.47;;;;;1.20;99495.00;;;;10400723;28;20295;-80
2021/01/30 20:39:35;;;;;;;12.83;10.33;;;;;1.30;99507.00;;;;10447216;28;20641;-80
2021/01/30 20:44:37;;;;;;;12.90;9.43;;;;;1.30;99517.00;;;;10435256;28;20672;-79
2021/01/30 20:49:39;;;;;;;12.03;9.00;;;;;1.40;99518.00;;;;10445696;28;20201;-80
2021/01/30 20:54:41;;;;;;;13.63;10.80;;;;;1.40;99518.00;;;;10424605;28;20600;-81
2021/01/30 20:59:42;;;;;;;13.70;10.33;;;;;1.40;99518.00;;;;10436959;28;20197;-80
2021/01/30 21:04:43;;;;;;;11.97;10.63;;;;;1.40;99531.00;;;;10446602;28;20260;-80
2021/01/30 21:09:45;;;;;;;15.03;11.47;;;;;1.40;99542.00;;;;10437571;28;20723;-80
2021/01/30 21:14:46;;;;;;;13.80;10.07;;;;;1.40;99532.00;;;;10394829;28;20271;-79
2021/01/30 21:19:49;;;;;;;15.43;10.73;;;;;1.40;99529.00;;;;10433624;28;20289;-81
2021/01/30 21:24:51;;;;;;;13.27;9.40;;;;;1.40;99546.00;;;;10435535;28;20194;-80
2021/01/30 21:29:54;;;;;;;14.40;10.27;;;;;1.40;99540.00;;;;10454093;28;20257;-81
2021/01/30 21:34:56;;;;;;;15.10;10.37;;;;;1.40;99540.00;;;;10433467;28;20225;-81
2021/01/30 21:39:58;;;;;;;12.67;9.47;;;;;1.40;99553.00;;;;10423796;28;20209;-81
2021/01/30 21:45:02;;;;;;;13.67;10.30;;;;;1.40;99562.00;;;;10431459;28;20260;-79
2021/01/30 21:50:05;;;;;;;14.10;10.07;;;;;1.40;99557.00;;;;10416378;28;20543;-80
2021/01/30 21:55:07;;;;;;;12.33;11.03;;;;;1.40;99566.00;;;;10473467;28;20238;-81
2021/01/30 22:00:09;;;;;;;13.63;9.60;;;;;1.40;99567.00;;;;10438760;28;20206;-80
2021/01/30 22:05:11;;;;;;;15.57;12.30;;;;;1.40;99560.00;;;;10437183;28;20236;-80
2021/01/30 22:10:12;;;;;;;14.93;11.37;;;;;1.40;99551.00;;;;10437965;28;20213;-80
2021/01/30 22:15:14;;;;;;;9.80;8.23;;;;;1.40;99569.00;;;;10410257;28;20222;-79
2021/01/30 22:20:16;;;;;;;15.30;11.00;;;;;1.40;99575.00;;;;10458075;28;20198;-79
2021/01/30 22:25:18;;;;;;;13.60;10.07;;;;;1.40;99566.00;;;;10432894;28;20194;-80
2021/01/30 22:30:20;;;;;;;13.77;10.30;;;;;1.40;99565.00;;;;10422567;28;20186;-80
2021/01/30 22:35:23;;;;;;;14.60;10.23;;;;;1.30;99564.00;;;;10418060;28;20202;-80
2021/01/30 22:40:25;;;;;;;13.23;10.90;;;;;1.30;99578.00;;;;10420005;28;20198;-80
2021/01/30 22:45:27;;;;;;;12.93;9.27;;;;;1.30;99567.00;;;;10470373;28;20250;-80
2021/01/30 22:50:29;;;;;;;16.37;12.13;;;;;1.30;99578.00;;;;10427025;28;20201;-79
2021/01/30 22:55:31;;;;;;;14.50;10.90;;;;;1.30;99590.00;;;;10458337;28;20225;-80
2021/01/30 23:00:42;;;;;;;15.37;11.10;;;;;1.30;99591.00;;;;10474440;28;20256;-81
2021/01/30 23:05:56;;;;;;;13.50;10.00;;;;;1.30;99590.00;;;;10436523;28;20194;-79
2021/01/30 23:11:31;;;;;;;16.07;10.20;;;;;1.30;99589.00;;;;10449316;28;20192;-80
2021/01/30 23:17:08;;;;;;;13.53;10.43;;;;;1.30;99600.00;;;;10430654;28;20214;-79
2021/01/30 23:22:46;;;;;;;14.67;10.70;;;;;1.20;99603.00;;;;10427689;28;20281;-80
2021/01/30 23:28:25;;;;;;;14.20;9.83;;;;;1.20;99624.00;;;;10441709;28;20205;-81
2021/01/30 23:34:01;;;;;;;10.47;8.53;;;;;1.30;99635.00;;;;10430487;28;20262;-81
2021/01/30 23:39:22;;;;;;;11.77;9.17;;;;;1.30;99615.00;;;;10433088;28;20284;-80
2021/01/30 23:44:36;;;;;;;14.47;8.63;;;;;1.30;99625.00;;;;10431912;28;20267;-81
2021/01/30 23:50:13;;;;;;;14.27;9.60;;;;;1.30;99614.00;;;;10429163;28;20195;-81
2021/01/30 23:55:48;;;;;;;12.70;8.97;;;;;1.30;99627.00;;;;10413621;28;20301;-81
